Flight Track Log - Related Links

Times and Time Zones

All times are in EDT time to prevent confusion due to time zone crossing. See the N7545J flight status page for this flight to view local times or setup timezone preferences in your user account.

Time Position Orientation Groundspeed Altitude Reporting Facility
EDT Latitude Longitude Course Direction KTS MPH feet Rate Location/Type
Sun 08:39:39 AM 34.2389 -86.5139 104° East 119 137 5,300  Level Atlanta Center
Sun 08:40:39 AM 34.2336 -86.4736 99° East 128 147 5,500 150 Climbing Atlanta Center
Sun 08:41:39 AM 34.2239 -86.4306 105° East 128 147 5,600 50 Climbing Atlanta Center
Sun 08:42:39 AM 34.2206 -86.3928 96° East 128 147 5,600 -50 Level Atlanta Center
Sun 08:43:39 AM 34.2133 -86.3372 99° East 133 153 5,500 -50 Descending Atlanta Center
Sun 08:44:00 AM 34.2326 -86.6463 104° East  Level FlightAware Approximate
Sun 08:44:39 AM 34.2036 -86.2892 104° East 138 159 5,500  Level Atlanta Center
Sun 08:45:39 AM 34.1981 -86.2514 100° East 138 159 5,600  Climbing Atlanta Center
Sun 08:46:39 AM 34.1886 -86.1958 102° East 138 159 5,500 -50 Descending Atlanta Center
Sun 08:47:39 AM 34.1792 -86.1456 103° East 143 165 5,500  Level Atlanta Center
Sun 08:48:39 AM 34.1756 -86.1103 97° East 143 165 5,500  Level Atlanta Center
Sun 08:49:39 AM 34.1661 -86.0522 101° East 143 165 5,500  Level Atlanta Center
Sun 08:50:39 AM 34.1606 -86.0044 98° East 143 165 5,500  Level Atlanta Center
Sun 08:51:39 AM 34.1508 -85.9589 104° East 143 165 5,500  Level Atlanta Center
Sun 08:52:39 AM 34.1453 -85.9189 100° East 143 165 5,500  Level Atlanta Center
Sun 08:53:39 AM 34.1314 -85.8633 107° East 143 165 5,500  Level Atlanta Center
Sun 08:54:39 AM 34.1281 -85.8156 95° East 143 165 5,500  Level Atlanta Center
Sun 08:55:39 AM 34.1222 -85.7728 99° East 143 165 5,500  Level Atlanta Center
Sun 08:56:39 AM 34.1147 -85.7250 101° East 143 165 5,500  Level Atlanta Center
Sun 08:57:39 AM 34.1089 -85.6797 99° East 143 165 5,500  Level Atlanta Center
Sun 08:58:39 AM 34.0992 -85.6317 104° East 143 165 5,500  Level Atlanta Center
Sun 08:59:39 AM 34.0933 -85.5864 99° East 143 165 5,500  Level Atlanta Center
Sun 09:00:39 AM 34.0856 -85.5386 101° East 143 165 5,500  Level Atlanta Center
Sun 09:01:39 AM 34.0758 -85.4933 105° East 143 165 5,500 50 Level Atlanta Center
Sun 09:02:39 AM 34.0742 -85.4483 93° East 143 165 5,600 50 Climbing Atlanta Center
Sun 09:03:39 AM 34.0644 -85.4006 104° East 143 165 5,600 -150 Level Atlanta Center
Sun 09:04:39 AM 34.0544 -85.3500 103° East 143 165 5,300 -300 Descending Atlanta Center
Sun 09:05:39 AM 34.0467 -85.2975 100° East 143 165 5,000 -200 Descending Atlanta Center
Sun 09:06:39 AM 34.0367 -85.2519 105° East 148 170 4,900 -50 Descending Atlanta Center
Sun 09:07:39 AM 34.0267 -85.2069 105° East 142 163 4,900  Level Atlanta Center
Sun 09:08:39 AM 34.0189 -85.1592 101° East 142 163 4,900  Level Atlanta Center
Sun 09:09:39 AM 34.0108 -85.1114 101° East 142 163 4,900 50 Level Atlanta Center
Sun 09:10:39 AM 34.0050 -85.0686 99° East 142 163 5,000 50 Climbing Atlanta Center
Sun 09:11:39 AM 33.9969 -85.0211 102° East 142 163 5,000  Level Atlanta Center
Sun 09:12:39 AM 33.9847 -84.9783 109° East 142 163 5,000  Level Atlanta Center
Sun 09:13:39 AM 33.9789 -84.9306 98° East 142 163 5,000  Level Atlanta Center
Sun 09:14:39 AM 33.9731 -84.8856 99° East 142 163 5,000 37 Level Atlanta Center
Sun 09:16:21 AM 33.9667 -84.8000 95° East 141 162 5,100 37 Climbing Atlanta TRACON
Sun 09:17:21 AM 33.9500 -84.7500 112° Southeast 144 166 5,100  Level Atlanta TRACON
Sun 09:18:21 AM 33.9500 -84.7000 90° East 144 166 5,100 -100 Level Atlanta TRACON
Sun 09:19:21 AM 33.9333 -84.6667 121° Southeast 153 176 4,900 -286 Descending Atlanta TRACON
Sun 09:20:27 AM 33.9167 -84.6000 107° East 157 181 4,500 -350 Descending Atlanta TRACON
Sun 09:21:21 AM 33.9000 -84.5667 121° Southeast 149 171 4,200 -421 Descending Atlanta TRACON
Sun 09:22:21 AM 33.8833 -84.5167 112° Southeast 156 180 3,700 -450 Descending Atlanta TRACON
Sun 09:23:21 AM 33.8667 -84.4667 112° Southeast 154 177 3,300 -350 Descending Atlanta TRACON
Sun 09:24:21 AM 33.8500 -84.4167 112° Southeast 142 163 3,000 -200 Descending Atlanta TRACON
Sun 09:25:21 AM 33.8333 -84.3833 121° Southeast 139 160 2,900 -250 Descending Atlanta TRACON
Sun 09:26:21 AM 33.8167 -84.3333 112° Southeast 154 177 2,500 -571 Descending Atlanta TRACON
Sun 09:27:27 AM 33.8333 -84.3167 40° Northeast 106 122 1,700 -571 Descending Atlanta TRACON
Sun 09:28:27 AM 33.8667 -84.3000 23° Northeast 89 102 1,300 -400 Descending Atlanta TRACON
Sun 09:30:00 AM 33.8756 -84.3020 North  Level Estimated
Sun 09:37:00 AM 33.8756 -84.3020 North  Level Estimated
Sun 09:38:00 AM 33.8756 -84.3020 North  Level Estimated
Sun 09:39:00 AM 33.8756 -84.3020 North  Level Estimated
Sun 09:40:00 AM 33.8756 -84.3020 North  Level Estimated

Login

Don't have an account? Register now (free) for customized features, flight alerts, and more!